sensor_id;sensor_type;location;lat;lon;timestamp;P1;durP1;ratioP1;P2;durP2;ratioP2
79751;SDS011;69234;47.446;21.636;2023-05-07T00:00:14;13.83;;;13.83;;
79751;SDS011;69234;47.446;21.636;2023-05-07T00:00:48;13.83;;;13.83;;
79751;SDS011;69234;47.446;21.636;2023-05-07T00:01:19;14.60;;;14.60;;
79751;SDS011;69234;47.446;21.636;2023-05-07T00:01:50;13.47;;;13.47;;
79751;SDS011;69234;47.446;21.636;2023-05-07T00:02:22;14.17;;;14.17;;
79751;SDS011;69234;47.446;21.636;2023-05-07T00:02:52;14.53;;;14.53;;
79751;SDS011;69234;47.446;21.636;2023-05-07T00:03:23;14.60;;;14.60;;
79751;SDS011;69234;47.446;21.636;2023-05-07T00:03:54;15.37;;;15.37;;
79751;SDS011;69234;47.446;21.636;2023-05-07T00:04:25;14.87;;;14.87;;
79751;SDS011;69234;47.446;21.636;2023-05-07T00:04:57;14.40;;;14.40;;
79751;SDS011;69234;47.446;21.636;2023-05-07T00:05:28;14.43;;;14.43;;
79751;SDS011;69234;47.446;21.636;2023-05-07T00:05:58;14.50;;;14.50;;
79751;SDS011;69234;47.446;21.636;2023-05-07T00:06:30;14.80;;;14.80;;
79751;SDS011;69234;47.446;21.636;2023-05-07T00:07:02;14.67;;;14.67;;
79751;SDS011;69234;47.446;21.636;2023-05-07T00:07:33;14.67;;;14.67;;
79751;SDS011;69234;47.446;21.636;2023-05-07T00:08:04;15.17;;;15.17;;
79751;SDS011;69234;47.446;21.636;2023-05-07T00:08:35;15.67;;;15.67;;
79751;SDS011;69234;47.446;21.636;2023-05-07T00:09:06;15.40;;;15.40;;
79751;SDS011;69234;47.446;21.636;2023-05-07T00:09:37;15.07;;;15.07;;
79751;SDS011;69234;47.446;21.636;2023-05-07T00:10:08;15.33;;;15.33;;
79751;SDS011;69234;47.446;21.636;2023-05-07T00:10:40;14.80;;;14.80;;
79751;SDS011;69234;47.446;21.636;2023-05-07T00:11:11;15.03;;;15.03;;
79751;SDS011;69234;47.446;21.636;2023-05-07T00:11:42;14.93;;;14.93;;
79751;SDS011;69234;47.446;21.636;2023-05-07T00:12:12;14.87;;;14.87;;
79751;SDS011;69234;47.446;21.636;2023-05-07T00:12:43;15.50;;;15.50;;
79751;SDS011;69234;47.446;21.636;2023-05-07T00:13:14;16.40;;;16.40;;
79751;SDS011;69234;47.446;21.636;2023-05-07T00:13:45;16.23;;;16.23;;
79751;SDS011;69234;47.446;21.636;2023-05-07T00:14:17;15.23;;;15.23;;
79751;SDS011;69234;47.446;21.636;2023-05-07T00:14:48;15.30;;;15.30;;
79751;SDS011;69234;47.446;21.636;2023-05-07T00:15:19;15.97;;;15.97;;
79751;SDS011;69234;47.446;21.636;2023-05-07T00:15:49;15.10;;;15.10;;
79751;SDS011;69234;47.446;21.636;2023-05-07T00:16:20;15.70;;;15.70;;
79751;SDS011;69234;47.446;21.636;2023-05-07T00:16:51;16.33;;;16.33;;
79751;SDS011;69234;47.446;21.636;2023-05-07T00:17:22;15.60;;;15.60;;
79751;SDS011;69234;47.446;21.636;2023-05-07T00:17:53;15.20;;;15.20;;
79751;SDS011;69234;47.446;21.636;2023-05-07T00:18:24;15.83;;;15.83;;
79751;SDS011;69234;47.446;21.636;2023-05-07T00:18:55;15.40;;;15.40;;
79751;SDS011;69234;47.446;21.636;2023-05-07T00:19:26;15.70;;;15.70;;
79751;SDS011;69234;47.446;21.636;2023-05-07T00:19:56;15.70;;;15.70;;
79751;SDS011;69234;47.446;21.636;2023-05-07T00:20:27;14.90;;;14.90;;
79751;SDS011;69234;47.446;21.636;2023-05-07T00:20:58;15.37;;;15.37;;
79751;SDS011;69234;47.446;21.636;2023-05-07T00:21:28;15.67;;;15.67;;
79751;SDS011;69234;47.446;21.636;2023-05-07T00:22:00;15.77;;;15.77;;
79751;SDS011;69234;47.446;21.636;2023-05-07T00:22:31;15.47;;;15.47;;
79751;SDS011;69234;47.446;21.636;2023-05-07T00:23:02;15.77;;;15.77;;
79751;SDS011;69234;47.446;21.636;2023-05-07T00:23:33;15.37;;;15.37;;
79751;SDS011;69234;47.446;21.636;2023-05-07T00:24:03;15.47;;;15.47;;
79751;SDS011;69234;47.446;21.636;2023-05-07T00:24:34;15.47;;;15.47;;
79751;SDS011;69234;47.446;21.636;2023-05-07T00:25:05;15.50;;;15.50;;
79751;SDS011;69234;47.446;21.636;2023-05-07T00:25:36;16.13;;;16.13;;
79751;SDS011;69234;47.446;21.636;2023-05-07T00:26:07;15.47;;;15.47;;
79751;SDS011;69234;47.446;21.636;2023-05-07T00:26:38;15.27;;;15.27;;
79751;SDS011;69234;47.446;21.636;2023-05-07T00:27:08;15.13;;;15.13;;
79751;SDS011;69234;47.446;21.636;2023-05-07T00:27:39;15.43;;;15.43;;
79751;SDS011;69234;47.446;21.636;2023-05-07T00:28:10;15.53;;;15.53;;
79751;SDS011;69234;47.446;21.636;2023-05-07T00:28:41;15.80;;;15.80;;
79751;SDS011;69234;47.446;21.636;2023-05-07T00:29:12;15.90;;;15.90;;
79751;SDS011;69234;47.446;21.636;2023-05-07T00:29:42;15.23;;;15.23;;
79751;SDS011;69234;47.446;21.636;2023-05-07T00:30:13;15.27;;;15.27;;
79751;SDS011;69234;47.446;21.636;2023-05-07T00:30:44;15.13;;;15.13;;
79751;SDS011;69234;47.446;21.636;2023-05-07T00:31:15;14.83;;;14.83;;
79751;SDS011;69234;47.446;21.636;2023-05-07T00:31:46;15.00;;;15.00;;
79751;SDS011;69234;47.446;21.636;2023-05-07T00:32:16;15.60;;;15.60;;
79751;SDS011;69234;47.446;21.636;2023-05-07T00:32:47;15.97;;;15.97;;
79751;SDS011;69234;47.446;21.636;2023-05-07T00:33:19;14.70;;;14.70;;
79751;SDS011;69234;47.446;21.636;2023-05-07T00:33:50;13.97;;;13.97;;
79751;SDS011;69234;47.446;21.636;2023-05-07T00:34:21;14.23;;;14.23;;
79751;SDS011;69234;47.446;21.636;2023-05-07T00:34:52;15.90;;;15.90;;
79751;SDS011;69234;47.446;21.636;2023-05-07T00:35:23;15.30;;;15.30;;
79751;SDS011;69234;47.446;21.636;2023-05-07T00:35:54;14.93;;;14.93;;
79751;SDS011;69234;47.446;21.636;2023-05-07T00:36:24;15.93;;;15.93;;
79751;SDS011;69234;47.446;21.636;2023-05-07T00:36:56;15.80;;;15.80;;
79751;SDS011;69234;47.446;21.636;2023-05-07T00:37:27;15.47;;;15.47;;
79751;SDS011;69234;47.446;21.636;2023-05-07T00:37:57;15.07;;;15.07;;
79751;SDS011;69234;47.446;21.636;2023-05-07T00:38:28;14.93;;;14.93;;
79751;SDS011;69234;47.446;21.636;2023-05-07T00:38:59;14.80;;;14.80;;
79751;SDS011;69234;47.446;21.636;2023-05-07T00:39:33;15.47;;;15.47;;
79751;SDS011;69234;47.446;21.636;2023-05-07T00:40:04;16.13;;;16.13;;
79751;SDS011;69234;47.446;21.636;2023-05-07T00:40:37;15.80;;;15.80;;
79751;SDS011;69234;47.446;21.636;2023-05-07T00:41:08;15.87;;;15.87;;
79751;SDS011;69234;47.446;21.636;2023-05-07T00:41:39;15.70;;;15.70;;
79751;SDS011;69234;47.446;21.636;2023-05-07T00:42:10;15.13;;;15.13;;
79751;SDS011;69234;47.446;21.636;2023-05-07T00:42:40;15.07;;;15.07;;
79751;SDS011;69234;47.446;21.636;2023-05-07T00:43:11;14.67;;;14.67;;
79751;SDS011;69234;47.446;21.636;2023-05-07T00:43:42;14.17;;;14.17;;
79751;SDS011;69234;47.446;21.636;2023-05-07T00:44:13;15.37;;;15.37;;
79751;SDS011;69234;47.446;21.636;2023-05-07T00:44:44;15.07;;;15.07;;
79751;SDS011;69234;47.446;21.636;2023-05-07T00:45:15;15.33;;;15.33;;
79751;SDS011;69234;47.446;21.636;2023-05-07T00:45:50;15.00;;;15.00;;
79751;SDS011;69234;47.446;21.636;2023-05-07T00:46:21;14.70;;;14.70;;
79751;SDS011;69234;47.446;21.636;2023-05-07T00:46:53;14.73;;;14.73;;
79751;SDS011;69234;47.446;21.636;2023-05-07T00:47:24;15.80;;;15.80;;
79751;SDS011;69234;47.446;21.636;2023-05-07T00:47:56;15.53;;;15.53;;
79751;SDS011;69234;47.446;21.636;2023-05-07T00:48:29;15.53;;;15.53;;
79751;SDS011;69234;47.446;21.636;2023-05-07T00:49:01;15.10;;;15.10;;
79751;SDS011;69234;47.446;21.636;2023-05-07T00:49:35;15.37;;;15.37;;
79751;SDS011;69234;47.446;21.636;2023-05-07T00:50:11;14.83;;;14.83;;
79751;SDS011;69234;47.446;21.636;2023-05-07T00:50:42;15.10;;;15.10;;
79751;SDS011;69234;47.446;21.636;2023-05-07T00:51:14;14.73;;;14.73;;
79751;SDS011;69234;47.446;21.636;2023-05-07T00:51:45;14.43;;;14.43;;
79751;SDS011;69234;47.446;21.636;2023-05-07T00:52:17;15.40;;;15.40;;
79751;SDS011;69234;47.446;21.636;2023-05-07T00:52:51;15.40;;;15.40;;
79751;SDS011;69234;47.446;21.636;2023-05-07T00:53:23;14.33;;;14.33;;
79751;SDS011;69234;47.446;21.636;2023-05-07T00:53:54;13.13;;;13.13;;
79751;SDS011;69234;47.446;21.636;2023-05-07T00:54:25;14.77;;;14.77;;
79751;SDS011;69234;47.446;21.636;2023-05-07T00:54:56;15.00;;;15.00;;
79751;SDS011;69234;47.446;21.636;2023-05-07T00:55:27;15.07;;;15.07;;
79751;SDS011;69234;47.446;21.636;2023-05-07T00:55:59;15.07;;;15.07;;
79751;SDS011;69234;47.446;21.636;2023-05-07T00:56:31;15.30;;;15.30;;
79751;SDS011;69234;47.446;21.636;2023-05-07T00:57:02;14.77;;;14.77;;
79751;SDS011;69234;47.446;21.636;2023-05-07T00:57:37;14.77;;;14.77;;
79751;SDS011;69234;47.446;21.636;2023-05-07T00:58:11;15.03;;;15.03;;
79751;SDS011;69234;47.446;21.636;2023-05-07T00:58:42;15.23;;;15.23;;
79751;SDS011;69234;47.446;21.636;2023-05-07T00:59:13;15.00;;;15.00;;
79751;SDS011;69234;47.446;21.636;2023-05-07T00:59:44;14.47;;;14.47;;
79751;SDS011;69234;47.446;21.636;2023-05-07T01:00:14;15.07;;;15.07;;
79751;SDS011;69234;47.446;21.636;2023-05-07T01:00:45;13.90;;;13.90;;
79751;SDS011;69234;47.446;21.636;2023-05-07T01:01:16;14.40;;;14.40;;
79751;SDS011;69234;47.446;21.636;2023-05-07T01:01:47;14.30;;;14.30;;
79751;SDS011;69234;47.446;21.636;2023-05-07T01:02:18;14.77;;;14.77;;
79751;SDS011;69234;47.446;21.636;2023-05-07T01:02:48;14.47;;;14.47;;
79751;SDS011;69234;47.446;21.636;2023-05-07T01:03:20;14.53;;;14.53;;
79751;SDS011;69234;47.446;21.636;2023-05-07T01:03:51;13.80;;;13.80;;
79751;SDS011;69234;47.446;21.636;2023-05-07T01:04:22;13.47;;;13.47;;
79751;SDS011;69234;47.446;21.636;2023-05-07T01:04:52;14.03;;;14.03;;
79751;SDS011;69234;47.446;21.636;2023-05-07T01:05:24;13.97;;;13.97;;
79751;SDS011;69234;47.446;21.636;2023-05-07T01:05:57;14.43;;;14.43;;
79751;SDS011;69234;47.446;21.636;2023-05-07T01:06:30;14.20;;;14.20;;
79751;SDS011;69234;47.446;21.636;2023-05-07T01:07:02;13.37;;;13.37;;
79751;SDS011;69234;47.446;21.636;2023-05-07T01:07:35;13.60;;;13.60;;
79751;SDS011;69234;47.446;21.636;2023-05-07T01:08:08;14.33;;;14.33;;
79751;SDS011;69234;47.446;21.636;2023-05-07T01:08:40;14.70;;;14.70;;
79751;SDS011;69234;47.446;21.636;2023-05-07T01:09:12;14.50;;;14.50;;
79751;SDS011;69234;47.446;21.636;2023-05-07T01:09:43;14.47;;;14.47;;
79751;SDS011;69234;47.446;21.636;2023-05-07T01:10:14;14.63;;;14.63;;
79751;SDS011;69234;47.446;21.636;2023-05-07T01:10:47;14.67;;;14.67;;
79751;SDS011;69234;47.446;21.636;2023-05-07T01:11:19;13.60;;;13.60;;
79751;SDS011;69234;47.446;21.636;2023-05-07T01:11:50;13.60;;;13.60;;
79751;SDS011;69234;47.446;21.636;2023-05-07T01:12:22;14.90;;;14.83;;
79751;SDS011;69234;47.446;21.636;2023-05-07T01:12:54;13.80;;;13.80;;
79751;SDS011;69234;47.446;21.636;2023-05-07T01:13:25;13.83;;;13.83;;
79751;SDS011;69234;47.446;21.636;2023-05-07T01:13:58;14.57;;;14.57;;
79751;SDS011;69234;47.446;21.636;2023-05-07T01:14:30;13.77;;;13.77;;
79751;SDS011;69234;47.446;21.636;2023-05-07T01:15:03;13.63;;;13.63;;
79751;SDS011;69234;47.446;21.636;2023-05-07T01:15:38;13.33;;;13.33;;
79751;SDS011;69234;47.446;21.636;2023-05-07T01:16:10;14.30;;;14.30;;
79751;SDS011;69234;47.446;21.636;2023-05-07T01:16:41;15.00;;;15.00;;
79751;SDS011;69234;47.446;21.636;2023-05-07T01:17:12;14.17;;;14.17;;
79751;SDS011;69234;47.446;21.636;2023-05-07T01:17:43;14.37;;;14.37;;
79751;SDS011;69234;47.446;21.636;2023-05-07T01:18:23;13.40;;;13.40;;
79751;SDS011;69234;47.446;21.636;2023-05-07T01:18:55;14.17;;;14.17;;
79751;SDS011;69234;47.446;21.636;2023-05-07T01:19:26;14.77;;;14.77;;
79751;SDS011;69234;47.446;21.636;2023-05-07T01:20:00;14.50;;;14.50;;
79751;SDS011;69234;47.446;21.636;2023-05-07T01:20:31;14.37;;;14.37;;
79751;SDS011;69234;47.446;21.636;2023-05-07T01:21:02;13.83;;;13.83;;
79751;SDS011;69234;47.446;21.636;2023-05-07T01:21:35;13.93;;;13.93;;
79751;SDS011;69234;47.446;21.636;2023-05-07T01:22:10;14.07;;;14.07;;
79751;SDS011;69234;47.446;21.636;2023-05-07T01:22:51;14.33;;;14.33;;
79751;SDS011;69234;47.446;21.636;2023-05-07T01:23:23;14.03;;;14.03;;
79751;SDS011;69234;47.446;21.636;2023-05-07T01:23:55;14.53;;;14.53;;
79751;SDS011;69234;47.446;21.636;2023-05-07T01:24:27;14.43;;;14.43;;
79751;SDS011;69234;47.446;21.636;2023-05-07T01:24:58;14.90;;;14.90;;
79751;SDS011;69234;47.446;21.636;2023-05-07T01:25:32;15.17;;;15.17;;
79751;SDS011;69234;47.446;21.636;2023-05-07T01:26:05;14.70;;;14.70;;
79751;SDS011;69234;47.446;21.636;2023-05-07T01:26:37;14.47;;;14.47;;
79751;SDS011;69234;47.446;21.636;2023-05-07T01:27:12;14.40;;;14.40;;
79751;SDS011;69234;47.446;21.636;2023-05-07T01:27:43;14.03;;;14.03;;
79751;SDS011;69234;47.446;21.636;2023-05-07T01:28:14;14.37;;;14.37;;
79751;SDS011;69234;47.446;21.636;2023-05-07T01:28:46;14.13;;;14.13;;
79751;SDS011;69234;47.446;21.636;2023-05-07T01:29:17;14.20;;;14.20;;
79751;SDS011;69234;47.446;21.636;2023-05-07T01:29:49;13.70;;;13.70;;
79751;SDS011;69234;47.446;21.636;2023-05-07T01:30:21;13.67;;;13.67;;
79751;SDS011;69234;47.446;21.636;2023-05-07T01:30:54;13.50;;;13.50;;
79751;SDS011;69234;47.446;21.636;2023-05-07T01:31:33;14.00;;;14.00;;
79751;SDS011;69234;47.446;21.636;2023-05-07T01:32:06;13.67;;;13.67;;
79751;SDS011;69234;47.446;21.636;2023-05-07T01:32:47;14.00;;;14.00;;
79751;SDS011;69234;47.446;21.636;2023-05-07T01:33:26;13.70;;;13.70;;
79751;SDS011;69234;47.446;21.636;2023-05-07T01:34:02;14.00;;;14.00;;
79751;SDS011;69234;47.446;21.636;2023-05-07T01:34:37;13.97;;;13.97;;
79751;SDS011;69234;47.446;21.636;2023-05-07T01:35:10;14.60;;;14.60;;
79751;SDS011;69234;47.446;21.636;2023-05-07T01:35:45;14.40;;;14.40;;
79751;SDS011;69234;47.446;21.636;2023-05-07T01:36:20;13.87;;;13.87;;
79751;SDS011;69234;47.446;21.636;2023-05-07T01:36:56;14.67;;;14.67;;
79751;SDS011;69234;47.446;21.636;2023-05-07T01:37:28;14.83;;;14.83;;
79751;SDS011;69234;47.446;21.636;2023-05-07T01:38:00;14.33;;;14.33;;
79751;SDS011;69234;47.446;21.636;2023-05-07T01:38:35;15.23;;;15.23;;
79751;SDS011;69234;47.446;21.636;2023-05-07T01:39:07;14.03;;;14.03;;
79751;SDS011;69234;47.446;21.636;2023-05-07T01:39:40;13.70;;;13.70;;
79751;SDS011;69234;47.446;21.636;2023-05-07T01:40:12;14.07;;;14.07;;
79751;SDS011;69234;47.446;21.636;2023-05-07T01:40:44;14.77;;;14.77;;
79751;SDS011;69234;47.446;21.636;2023-05-07T01:41:15;14.40;;;14.40;;
79751;SDS011;69234;47.446;21.636;2023-05-07T01:41:46;14.40;;;14.40;;
79751;SDS011;69234;47.446;21.636;2023-05-07T01:42:17;14.03;;;14.03;;
79751;SDS011;69234;47.446;21.636;2023-05-07T01:42:48;14.63;;;14.63;;
79751;SDS011;69234;47.446;21.636;2023-05-07T01:43:19;14.17;;;14.17;;
79751;SDS011;69234;47.446;21.636;2023-05-07T01:43:50;14.73;;;14.73;;
79751;SDS011;69234;47.446;21.636;2023-05-07T01:44:24;14.93;;;14.93;;
79751;SDS011;69234;47.446;21.636;2023-05-07T01:44:56;15.17;;;15.17;;
79751;SDS011;69234;47.446;21.636;2023-05-07T01:45:26;15.63;;;15.63;;
79751;SDS011;69234;47.446;21.636;2023-05-07T01:45:57;15.13;;;15.13;;
79751;SDS011;69234;47.446;21.636;2023-05-07T01:46:30;15.07;;;15.07;;
79751;SDS011;69234;47.446;21.636;2023-05-07T01:47:02;13.93;;;13.93;;
79751;SDS011;69234;47.446;21.636;2023-05-07T01:47:34;13.57;;;13.57;;
79751;SDS011;69234;47.446;21.636;2023-05-07T01:48:07;14.40;;;14.40;;
79751;SDS011;69234;47.446;21.636;2023-05-07T01:48:40;13.80;;;13.80;;
79751;SDS011;69234;47.446;21.636;2023-05-07T01:49:16;13.97;;;13.97;;
79751;SDS011;69234;47.446;21.636;2023-05-07T01:49:47;14.37;;;14.37;;
79751;SDS011;69234;47.446;21.636;2023-05-07T01:50:18;14.70;;;14.70;;
79751;SDS011;69234;47.446;21.636;2023-05-07T01:50:50;14.90;;;14.90;;
79751;SDS011;69234;47.446;21.636;2023-05-07T01:51:22;14.57;;;14.57;;
79751;SDS011;69234;47.446;21.636;2023-05-07T01:51:53;14.87;;;14.87;;
79751;SDS011;69234;47.446;21.636;2023-05-07T01:52:23;14.03;;;14.03;;
79751;SDS011;69234;47.446;21.636;2023-05-07T01:52:55;13.90;;;13.90;;
79751;SDS011;69234;47.446;21.636;2023-05-07T01:53:27;15.10;;;15.10;;
79751;SDS011;69234;47.446;21.636;2023-05-07T01:53:58;14.77;;;14.77;;
79751;SDS011;69234;47.446;21.636;2023-05-07T01:54:30;15.00;;;15.00;;
79751;SDS011;69234;47.446;21.636;2023-05-07T01:55:02;15.27;;;15.27;;
79751;SDS011;69234;47.446;21.636;2023-05-07T01:55:33;14.93;;;14.93;;
79751;SDS011;69234;47.446;21.636;2023-05-07T01:56:04;14.27;;;14.27;;
79751;SDS011;69234;47.446;21.636;2023-05-07T01:56:36;14.70;;;14.70;;
79751;SDS011;69234;47.446;21.636;2023-05-07T01:57:07;14.57;;;14.57;;
79751;SDS011;69234;47.446;21.636;2023-05-07T01:57:38;15.07;;;15.07;;
79751;SDS011;69234;47.446;21.636;2023-05-07T01:58:09;15.30;;;15.30;;
79751;SDS011;69234;47.446;21.636;2023-05-07T01:58:41;14.53;;;14.53;;
79751;SDS011;69234;47.446;21.636;2023-05-07T01:59:12;14.30;;;14.30;;
79751;SDS011;69234;47.446;21.636;2023-05-07T01:59:43;14.50;;;14.50;;
79751;SDS011;69234;47.446;21.636;2023-05-07T02:00:14;15.13;;;15.13;;
79751;SDS011;69234;47.446;21.636;2023-05-07T02:00:48;15.10;;;15.10;;
79751;SDS011;69234;47.446;21.636;2023-05-07T02:01:19;14.47;;;14.47;;
79751;SDS011;69234;47.446;21.636;2023-05-07T02:01:50;13.67;;;13.67;;
79751;SDS011;69234;47.446;21.636;2023-05-07T02:02:22;13.93;;;13.93;;
79751;SDS011;69234;47.446;21.636;2023-05-07T02:02:52;13.80;;;13.80;;
79751;SDS011;69234;47.446;21.636;2023-05-07T02:03:35;13.83;;;13.83;;
79751;SDS011;69234;47.446;21.636;2023-05-07T02:04:13;14.53;;;14.53;;
79751;SDS011;69234;47.446;21.636;2023-05-07T02:04:44;14.87;;;14.87;;
79751;SDS011;69234;47.446;21.636;2023-05-07T02:05:15;14.87;;;14.87;;
79751;SDS011;69234;47.446;21.636;2023-05-07T02:05:47;13.83;;;13.83;;
79751;SDS011;69234;47.446;21.636;2023-05-07T02:06:38;14.43;;;14.43;;
79751;SDS011;69234;47.446;21.636;2023-05-07T02:07:10;14.70;;;14.70;;
79751;SDS011;69234;47.446;21.636;2023-05-07T02:07:41;14.07;;;14.07;;
79751;SDS011;69234;47.446;21.636;2023-05-07T02:08:12;13.97;;;13.97;;
79751;SDS011;69234;47.446;21.636;2023-05-07T02:08:43;14.03;;;14.03;;
79751;SDS011;69234;47.446;21.636;2023-05-07T02:09:15;13.73;;;13.73;;
79751;SDS011;69234;47.446;21.636;2023-05-07T02:09:48;13.90;;;13.90;;
79751;SDS011;69234;47.446;21.636;2023-05-07T02:10:19;14.43;;;14.43;;
79751;SDS011;69234;47.446;21.636;2023-05-07T02:10:50;14.17;;;14.17;;
79751;SDS011;69234;47.446;21.636;2023-05-07T02:11:21;14.20;;;14.20;;
79751;SDS011;69234;47.446;21.636;2023-05-07T02:11:52;13.87;;;13.87;;
79751;SDS011;69234;47.446;21.636;2023-05-07T02:12:24;13.63;;;13.63;;
79751;SDS011;69234;47.446;21.636;2023-05-07T02:12:55;14.33;;;14.33;;
79751;SDS011;69234;47.446;21.636;2023-05-07T02:13:28;14.03;;;14.03;;
79751;SDS011;69234;47.446;21.636;2023-05-07T02:14:04;14.30;;;14.30;;
79751;SDS011;69234;47.446;21.636;2023-05-07T02:14:35;14.13;;;14.13;;
79751;SDS011;69234;47.446;21.636;2023-05-07T02:15:06;14.57;;;14.57;;
79751;SDS011;69234;47.446;21.636;2023-05-07T02:15:38;14.57;;;14.57;;
79751;SDS011;69234;47.446;21.636;2023-05-07T02:16:09;15.17;;;15.17;;
79751;SDS011;69234;47.446;21.636;2023-05-07T02:16:42;14.07;;;14.07;;
79751;SDS011;69234;47.446;21.636;2023-05-07T02:17:15;14.33;;;14.33;;
79751;SDS011;69234;47.446;21.636;2023-05-07T02:18:18;14.40;;;14.40;;
79751;SDS011;69234;47.446;21.636;2023-05-07T02:18:42;14.13;;;14.13;;
79751;SDS011;69234;47.446;21.636;2023-05-07T02:19:13;13.87;;;13.87;;
79751;SDS011;69234;47.446;21.636;2023-05-07T02:19:44;14.27;;;14.27;;
79751;SDS011;69234;47.446;21.636;2023-05-07T02:20:15;14.60;;;14.60;;
79751;SDS011;69234;47.446;21.636;2023-05-07T02:20:46;14.57;;;14.57;;
79751;SDS011;69234;47.446;21.636;2023-05-07T02:21:17;14.23;;;14.23;;
79751;SDS011;69234;47.446;21.636;2023-05-07T02:21:48;14.77;;;14.77;;
79751;SDS011;69234;47.446;21.636;2023-05-07T02:22:18;13.97;;;13.97;;
79751;SDS011;69234;47.446;21.636;2023-05-07T02:22:49;14.33;;;14.33;;
79751;SDS011;69234;47.446;21.636;2023-05-07T02:23:20;14.33;;;14.33;;
79751;SDS011;69234;47.446;21.636;2023-05-07T02:23:51;14.67;;;14.67;;
79751;SDS011;69234;47.446;21.636;2023-05-07T02:24:22;14.70;;;14.70;;
79751;SDS011;69234;47.446;21.636;2023-05-07T02:24:52;14.90;;;14.90;;
79751;SDS011;69234;47.446;21.636;2023-05-07T02:25:23;14.53;;;14.53;;
79751;SDS011;69234;47.446;21.636;2023-05-07T02:25:54;14.63;;;14.63;;
79751;SDS011;69234;47.446;21.636;2023-05-07T02:26:25;14.43;;;14.43;;
79751;SDS011;69234;47.446;21.636;2023-05-07T02:26:56;13.77;;;13.77;;
79751;SDS011;69234;47.446;21.636;2023-05-07T02:27:26;14.23;;;14.23;;
79751;SDS011;69234;47.446;21.636;2023-05-07T02:27:57;13.73;;;13.73;;
79751;SDS011;69234;47.446;21.636;2023-05-07T02:28:38;15.37;;;15.37;;
79751;SDS011;69234;47.446;21.636;2023-05-07T02:29:09;14.17;;;14.17;;
79751;SDS011;69234;47.446;21.636;2023-05-07T02:29:42;14.73;;;14.73;;
79751;SDS011;69234;47.446;21.636;2023-05-07T02:30:13;14.50;;;14.50;;
79751;SDS011;69234;47.446;21.636;2023-05-07T02:30:44;14.00;;;14.00;;
79751;SDS011;69234;47.446;21.636;2023-05-07T02:31:15;14.33;;;14.33;;
79751;SDS011;69234;47.446;21.636;2023-05-07T02:31:46;14.67;;;14.67;;
79751;SDS011;69234;47.446;21.636;2023-05-07T02:32:20;14.23;;;14.23;;
79751;SDS011;69234;47.446;21.636;2023-05-07T02:32:53;14.27;;;14.27;;
79751;SDS011;69234;47.446;21.636;2023-05-07T02:33:23;14.33;;;14.33;;
79751;SDS011;69234;47.446;21.636;2023-05-07T02:33:55;14.47;;;14.47;;
79751;SDS011;69234;47.446;21.636;2023-05-07T02:34:26;14.90;;;14.90;;
79751;SDS011;69234;47.446;21.636;2023-05-07T02:34:57;14.57;;;14.57;;
79751;SDS011;69234;47.446;21.636;2023-05-07T02:35:28;14.63;;;14.63;;
79751;SDS011;69234;47.446;21.636;2023-05-07T02:36:08;15.20;;;15.20;;
79751;SDS011;69234;47.446;21.636;2023-05-07T02:36:45;14.63;;;14.63;;
79751;SDS011;69234;47.446;21.636;2023-05-07T02:37:18;14.83;;;14.83;;
79751;SDS011;69234;47.446;21.636;2023-05-07T02:37:49;14.73;;;14.73;;
79751;SDS011;69234;47.446;21.636;2023-05-07T02:38:20;14.40;;;14.40;;
79751;SDS011;69234;47.446;21.636;2023-05-07T02:38:50;14.97;;;14.97;;
79751;SDS011;69234;47.446;21.636;2023-05-07T02:39:21;14.70;;;14.70;;
79751;SDS011;69234;47.446;21.636;2023-05-07T02:39:52;14.00;;;14.00;;
79751;SDS011;69234;47.446;21.636;2023-05-07T02:40:23;14.33;;;14.33;;
79751;SDS011;69234;47.446;21.636;2023-05-07T02:40:53;14.90;;;14.90;;
79751;SDS011;69234;47.446;21.636;2023-05-07T02:41:24;15.47;;;15.47;;
79751;SDS011;69234;47.446;21.636;2023-05-07T02:41:55;15.20;;;15.20;;
79751;SDS011;69234;47.446;21.636;2023-05-07T02:42:26;14.03;;;14.03;;
79751;SDS011;69234;47.446;21.636;2023-05-07T02:42:57;14.23;;;14.23;;
79751;SDS011;69234;47.446;21.636;2023-05-07T02:43:28;13.93;;;13.93;;
79751;SDS011;69234;47.446;21.636;2023-05-07T02:43:59;13.83;;;13.83;;
79751;SDS011;69234;47.446;21.636;2023-05-07T02:44:30;14.47;;;14.47;;
79751;SDS011;69234;47.446;21.636;2023-05-07T02:45:01;14.90;;;14.90;;
79751;SDS011;69234;47.446;21.636;2023-05-07T02:45:34;15.07;;;15.07;;
79751;SDS011;69234;47.446;21.636;2023-05-07T02:46:08;14.00;;;14.00;;
79751;SDS011;69234;47.446;21.636;2023-05-07T02:46:43;15.17;;;15.17;;
79751;SDS011;69234;47.446;21.636;2023-05-07T02:47:16;15.17;;;15.17;;
79751;SDS011;69234;47.446;21.636;2023-05-07T02:47:48;14.53;;;14.53;;
79751;SDS011;69234;47.446;21.636;2023-05-07T02:48:19;14.73;;;14.73;;
79751;SDS011;69234;47.446;21.636;2023-05-07T02:48:50;14.77;;;14.77;;
79751;SDS011;69234;47.446;21.636;2023-05-07T02:49:20;13.70;;;13.70;;
79751;SDS011;69234;47.446;21.636;2023-05-07T02:49:51;14.00;;;14.00;;
79751;SDS011;69234;47.446;21.636;2023-05-07T02:50:23;14.43;;;14.43;;
79751;SDS011;69234;47.446;21.636;2023-05-07T02:50:53;13.77;;;13.77;;
79751;SDS011;69234;47.446;21.636;2023-05-07T02:51:25;13.57;;;13.57;;
79751;SDS011;69234;47.446;21.636;2023-05-07T02:51:58;14.33;;;14.33;;
79751;SDS011;69234;47.446;21.636;2023-05-07T02:52:29;13.67;;;13.67;;
79751;SDS011;69234;47.446;21.636;2023-05-07T02:53:00;13.47;;;13.47;;
79751;SDS011;69234;47.446;21.636;2023-05-07T02:53:31;13.87;;;13.87;;
79751;SDS011;69234;47.446;21.636;2023-05-07T02:54:02;13.87;;;13.87;;
79751;SDS011;69234;47.446;21.636;2023-05-07T02:54:34;14.27;;;14.27;;
79751;SDS011;69234;47.446;21.636;2023-05-07T02:55:05;14.20;;;14.20;;
79751;SDS011;69234;47.446;21.636;2023-05-07T02:55:36;13.40;;;13.40;;
79751;SDS011;69234;47.446;21.636;2023-05-07T02:56:07;13.93;;;13.93;;
79751;SDS011;69234;47.446;21.636;2023-05-07T02:56:38;14.60;;;14.60;;
79751;SDS011;69234;47.446;21.636;2023-05-07T02:57:09;14.20;;;14.20;;
79751;SDS011;69234;47.446;21.636;2023-05-07T02:57:39;14.53;;;14.53;;
79751;SDS011;69234;47.446;21.636;2023-05-07T02:58:10;13.90;;;13.90;;
79751;SDS011;69234;47.446;21.636;2023-05-07T02:58:43;13.83;;;13.83;;
79751;SDS011;69234;47.446;21.636;2023-05-07T02:59:15;14.50;;;14.50;;
79751;SDS011;69234;47.446;21.636;2023-05-07T02:59:46;14.27;;;14.27;;
79751;SDS011;69234;47.446;21.636;2023-05-07T03:00:18;13.80;;;13.80;;
79751;SDS011;69234;47.446;21.636;2023-05-07T03:01:02;14.30;;;14.30;;
79751;SDS011;69234;47.446;21.636;2023-05-07T03:01:40;14.63;;;14.63;;
79751;SDS011;69234;47.446;21.636;2023-05-07T03:02:14;14.03;;;14.03;;
79751;SDS011;69234;47.446;21.636;2023-05-07T03:02:44;13.80;;;13.80;;
79751;SDS011;69234;47.446;21.636;2023-05-07T03:03:15;13.63;;;13.63;;
79751;SDS011;69234;47.446;21.636;2023-05-07T03:03:47;13.83;;;13.83;;
79751;SDS011;69234;47.446;21.636;2023-05-07T03:04:17;14.50;;;14.50;;